• Join FlightAware (Why Join?)
  • Login
  • US Flag 
06:12PM EST


 

Airport Tracker/Info


-or-


 

Live Flight TrackerFlight Track Log ✈ AAY805 ✈ 27-Feb-2014 ✈ KCHA - KPIE

Flight Track Log - Related Links

Times and Time Zones

All times are in EST time to prevent confusion due to time zone crossing. See the AAY805 flight status page for this flight to view local times or setup timezone preferences in your user account.

Time Position Orientation Groundspeed Altitude Reporting Facility
EST Latitude Longitude Course Direction KTS MPH feet Rate Location/Type
09:08AM 34.8681 -85.1856 161° South 278 320 7,300  Level Atlanta Center
09:09AM 34.7892 -85.1364 153° Southeast 297 342 10,000 2,040 Climbing Atlanta Center
09:10AM 34.6997 -85.0822 154° Southeast 327 376 11,400 1,860 Climbing Atlanta Center
09:11AM 34.5897 -85.0103 152° Southeast 383 441 13,800 2,400 Climbing Atlanta Center
09:12AM 34.5579 -84.9206 158° South  Level FlightAware Approximate
09:12AM 34.4817 -84.9461 154° Southeast 420 483 16,300  Level Atlanta Center
09:13AM 34.4583 -84.8750 161° South  Level FlightAware Approximate
09:13AM 34.3736 -84.8819 154° Southeast 434 499 18,500  Level Atlanta Center
09:14AM 34.2594 -84.8131 153° Southeast 444 511 20,400 1,920 Climbing Atlanta Center
09:15AM 34.1450 -84.7442 154° Southeast 449 517 22,400 1,740 Climbing Atlanta Center
09:16AM 34.0389 -84.6856 155° Southeast 462 532 23,900 1,740 Climbing Atlanta Center
09:17AM 33.9203 -84.6094 152° Southeast 467 537 25,900 1,800 Climbing Atlanta Center
09:18AM 33.8058 -84.5389 153° Southeast 467 537 27,500 1,860 Climbing Atlanta Center
09:19AM 33.6725 -84.4656 155° Southeast 469 540 29,700 1,680 Climbing Atlanta Center
09:20AM 33.5556 -84.4353 168° South 439 505 30,900 600 Climbing Atlanta Center
09:21AM 33.4367 -84.4347 180° South 434 499 31,000  Climbing Atlanta Center
09:22AM 33.3178 -84.4317 179° South 429 494 31,000  Level Atlanta Center
09:23AM 33.1986 -84.4311 180° South 423 487 31,000  Level Atlanta Center
09:24AM 33.0797 -84.4256 178° South 423 487 31,000  Level Atlanta Center
09:25AM 32.9586 -84.4250 180° South 428 493 31,000  Level Atlanta Center
09:26AM 32.8378 -84.4269 181° South 434 499 31,000  Level Atlanta Center
09:27AM 32.7311 -84.4192 176° South 434 499 31,000  Level Atlanta Center
09:28AM 32.6144 -84.4161 179° South 434 499 31,000 300 Level Atlanta Center
09:29AM 32.4953 -84.4131 179° South 434 499 31,700 960 Climbing Atlanta Center
09:30AM 32.3806 -84.4128 180° South 429 494 33,000 600 Climbing Atlanta Center
09:31AM 32.2700 -84.4097 179° South 416 479 33,000  Level Atlanta Center
09:32AM 32.1594 -84.4069 179° South 405 466 33,000  Level Atlanta Center
09:33AM 32.0444 -84.4064 180° South 405 466 33,000  Level Atlanta Center
09:37AM 31.6356 -84.3958 179° South 421 484 33,000  Level Jacksonville Center
09:38AM 31.5208 -84.3939 179° South 416 479 33,000  Level Jacksonville Center
09:39AM 31.4144 -84.3922 179° South 411 473 33,000  Level Jacksonville Center
09:40AM 31.2975 -84.3903 179° South 411 473 33,000  Level Jacksonville Center
09:41AM 31.1847 -84.3861 178° South 411 473 33,000  Level Jacksonville Center
09:42AM 31.0761 -84.3867 180° South 401 461 33,000  Level Jacksonville Center
09:43AM 30.9678 -84.3825 178° South 401 461 33,000  Level Jacksonville Center
09:44AM 30.8550 -84.3833 180° South 401 461 33,000  Level Jacksonville Center
09:45AM 30.7444 -84.3792 178° South 401 461 33,000  Level Jacksonville Center
09:46AM 30.6317 -84.3772 179° South 401 461 33,000 -60 Level Jacksonville Center
09:47AM 30.5086 -84.3489 169° South 406 467 32,900 -60 Descending Jacksonville Center
09:48AM 30.3947 -84.2725 150° Southeast 430 495 32,900  Level Jacksonville Center
09:49AM 30.2828 -84.1986 150° Southeast 443 510 33,000  Climbing Jacksonville Center
09:50AM 30.1750 -84.1253 150° Southeast 450 518 32,900  Descending Jacksonville Center
09:51AM 30.0608 -84.0517 151° Southeast 462 532 33,000  Climbing Jacksonville Center
09:52AM 29.9508 -83.9808 151° Southeast 462 532 33,000  Level Jacksonville Center
09:53AM 29.8428 -83.9103 150° Southeast 450 518 33,000 -60 Level Jacksonville Center
09:54AM 29.7328 -83.8397 151° Southeast 450 518 32,900 -240 Descending Jacksonville Center
09:55AM 29.6225 -83.7694 151° Southeast 455 524 32,600 -1,200 Descending Jacksonville Center
09:56AM 29.5125 -83.6969 150° Southeast 455 524 30,600 -1,920 Descending Jacksonville Center
09:57AM 29.3981 -83.6244 151° Southeast 455 524 28,800 -1,920 Descending Jacksonville Center
09:58AM 29.2856 -83.5544 152° Southeast 455 524 26,800 -1,800 Descending Jacksonville Center
09:59AM 29.1775 -83.4847 151° Southeast 450 518 25,200 -1,680 Descending Jacksonville Center
10:00AM 29.0714 -83.4175 151° Southeast 445 512 23,500 -1,800 Descending Jacksonville Center
10:01AM 28.9631 -83.3483 151° Southeast 445 512 21,700 -1,920 Descending Jacksonville Center
10:02AM 28.8631 -83.2861 151° Southeast 434 499 19,700 -2,100 Descending Jacksonville Center
10:03AM 28.7631 -83.2217 151° Southeast 423 487 17,600 -2,040 Descending Jacksonville Center
10:05AM 28.5833 -83.1167 153° Southeast 384 442 13,900 -1,680 Descending Tampa TRACON
10:06AM 28.5000 -83.0667 152° Southeast 354 407 13,000 -480 Descending Tampa TRACON
10:07AM 28.4167 -83.0000 145° Southeast 343 395 13,000 -60 Level Tampa TRACON
10:08AM 28.3333 -82.9500 152° Southeast 353 406 12,900 -600 Descending Tampa TRACON
10:09AM 28.2667 -82.8833 139° Southeast 343 395 11,900 -1,200 Descending Tampa TRACON
10:10AM 28.1833 -82.8333 152° Southeast 307 353 10,500 -1,500 Descending Tampa TRACON
10:11AM 28.1000 -82.8000 161° South 291 335 9,000 -1,500 Descending Tampa TRACON
10:12AM 28.0333 -82.8000 180° South 278 320 7,500 -1,680 Descending Tampa TRACON
10:13AM 27.9333 -82.8000 180° South 267 307 5,400 -1,800 Descending Tampa TRACON
10:14AM 27.8833 -82.7833 164° South 274 315 4,000 -1,380 Descending Tampa TRACON
10:15AM 27.8000 -82.7833 180° South 271 312 2,900 -840 Descending Tampa TRACON
10:16AM 27.7333 -82.7833 180° South 216 249 2,400 -480 Descending Tampa TRACON
10:17AM 27.7167 -82.7333 111° Southeast 192 221 2,000 -240 Descending Tampa TRACON
10:18AM 27.7500 -82.7000 42° Northeast 172 198 2,000  Level Tampa TRACON
10:19AM 27.8000 -82.6833 16° North 161 185 2,000 -480 Level Tampa TRACON
10:20AM 27.8333 -82.6833 360° North 137 158 1,100 -720 Descending Tampa TRACON
10:21AM 27.8833 -82.6833 360° North 134 154 600 -540 Descending Tampa TRACON